This is the latest recevied weather packets stored in our database for station/object IU2RPR-3. If no packets are shown the sender has not sent any weather packets the latest 10 day(s).
| Time | Temp. | Humidity | Pressure | Rain* | Wind** | Luminosity | Snow |
|---|---|---|---|---|---|---|---|
| 1776980940 | 15° C | 62% | 1021.4 hPa | - | - | - | - |
| 1776979139 | 15.56° C | 61% | 1021.5 hPa | - | - | - | - |
| 1776977338 | 16.11° C | 59% | 1021.4 hPa | - | - | - | - |
| 1776975537 | 17.22° C | 55% | 1021.2 hPa | - | - | - | - |
| 1776973735 | 17.78° C | 54% | 1021.1 hPa | - | - | - | - |
| 1776971934 | 18.89° C | 49% | 1020.6 hPa | - | - | - | - |
| 1776970311 | 20° C | 45% | 1020.4 hPa | - | - | - | - |
| 1776968510 | 20.56° C | 44% | 1020.3 hPa | - | - | - | - |
| 1776966709 | 24.44° C | 37% | 1020 hPa | - | - | - | - |
| 1776964908 | 26.11° C | 35% | 1020.1 hPa | - | - | - | - |
| 1776963106 | 25° C | 37% | 1020 hPa | - | - | - | - |
| 1776961305 | 25° C | 36% | 1020.3 hPa | - | - | - | - |
| 1776959504 | 23.89° C | 36% | 1020.7 hPa | - | - | - | - |
| 1776957703 | 25.56° C | 35% | 1020.9 hPa | - | - | - | - |
| 1776955901 | 23.89° C | 37% | 1021.4 hPa | - | - | - | - |
| 1776954100 | 23.33° C | 37% | 1021.9 hPa | - | - | - | - |
| 1776952297 | 23.33° C | 38% | 1022.5 hPa | - | - | - | - |
| 1776950496 | 22.22° C | 41% | 1023 hPa | - | - | - | - |
| 1776948697 | 21.67° C | 43% | 1023.4 hPa | - | - | - | - |
| 1776946894 | 21.11° C | 44% | 1023.9 hPa | - | - | - | - |
| 1776945093 | 21.11° C | 45% | 1024.2 hPa | - | - | - | - |
| 1776943291 | 19.44° C | 44% | 1024.7 hPa | - | - | - | - |
| 1776941490 | 18.89° C | 45% | 1025.2 hPa | - | - | - | - |
| 1776939689 | 17.78° C | 46% | 1025.6 hPa | - | - | - | - |
| 1776937888 | 17.22° C | 46% | 1026.1 hPa | - | - | - | - |
* Rain since midnight (hover to see other rain measurements)
** Current wind speed in m/s (hover to see current wind gust speed)